createdAt,value
2018-09-20T00:02:09.040Z,24.80
2018-09-20T00:04:36.836Z,24.80
2018-09-20T00:07:04.486Z,24.80
2018-09-20T00:09:32.158Z,24.70
2018-09-20T00:11:59.919Z,24.70
2018-09-20T00:14:27.585Z,24.70
2018-09-20T00:16:55.241Z,24.70
2018-09-20T00:19:23.169Z,24.70
2018-09-20T00:21:50.954Z,24.70
2018-09-20T00:24:18.608Z,24.70
2018-09-20T00:26:46.234Z,24.70
2018-09-20T00:29:14.051Z,24.70
2018-09-20T00:31:41.923Z,24.70
2018-09-20T00:34:09.596Z,24.70
2018-09-20T00:36:37.262Z,24.70
2018-09-20T00:39:07.991Z,24.70
2018-09-20T00:41:35.652Z,24.70
2018-09-20T00:44:03.373Z,24.70
2018-09-20T00:46:31.111Z,24.70
2018-09-20T00:48:58.745Z,24.70
2018-09-20T00:51:26.378Z,24.70
2018-09-20T00:53:54.053Z,24.60
2018-09-20T00:56:21.744Z,24.60
2018-09-20T00:58:49.466Z,24.70
2018-09-20T01:01:17.185Z,24.60
2018-09-20T01:03:44.864Z,24.70
2018-09-20T01:06:12.703Z,24.70
2018-09-20T01:08:40.416Z,24.70
2018-09-20T01:11:08.064Z,24.70
2018-09-20T01:13:35.741Z,24.70
2018-09-20T01:16:03.413Z,24.60
2018-09-20T01:18:31.101Z,24.60
2018-09-20T01:20:58.822Z,24.50
2018-09-20T01:23:26.420Z,24.60
2018-09-20T01:25:54.188Z,24.60
2018-09-20T01:28:21.998Z,24.60
2018-09-20T01:30:52.162Z,24.50
2018-09-20T01:33:19.882Z,24.60
2018-09-20T01:35:47.541Z,24.50
2018-09-20T01:38:15.302Z,24.60
2018-09-20T01:40:43.198Z,24.60
2018-09-20T01:43:10.844Z,24.60
2018-09-20T01:45:38.573Z,24.60
2018-09-20T01:48:06.226Z,24.60
2018-09-20T01:50:33.867Z,24.50
2018-09-20T01:53:01.544Z,24.40
2018-09-20T01:55:29.161Z,24.50
2018-09-20T01:57:56.978Z,24.50
2018-09-20T02:00:24.626Z,24.40
2018-09-20T02:02:52.346Z,24.40
2018-09-20T02:05:19.958Z,24.40
2018-09-20T02:07:47.658Z,24.40
2018-09-20T02:10:15.343Z,24.40
2018-09-20T02:12:43.200Z,24.40
2018-09-20T02:15:10.860Z,24.50
2018-09-20T02:17:38.527Z,24.40
2018-09-20T02:20:06.246Z,24.30
2018-09-20T02:22:33.982Z,24.30
2018-09-20T02:25:01.654Z,24.30
2018-09-20T02:27:29.575Z,24.40
2018-09-20T02:29:57.280Z,24.40
2018-09-20T02:32:24.932Z,24.40
2018-09-20T02:34:52.606Z,24.40
2018-09-20T02:37:20.328Z,24.40
2018-09-20T02:39:47.977Z,24.40
2018-09-20T02:42:15.663Z,24.40
2018-09-20T02:44:43.306Z,24.30
2018-09-20T02:47:11.022Z,24.20
2018-09-20T02:49:38.643Z,24.00
2018-09-20T02:52:06.414Z,24.00
2018-09-20T02:54:34.016Z,24.00
2018-09-20T02:57:01.697Z,24.10
2018-09-20T02:59:29.302Z,24.20
2018-09-20T03:01:57.092Z,24.20
2018-09-20T03:04:24.799Z,24.30
2018-09-20T03:06:52.454Z,24.20
2018-09-20T03:09:20.240Z,24.30
2018-09-20T03:11:47.952Z,24.30
2018-09-20T03:14:15.580Z,24.30
2018-09-20T03:16:43.253Z,24.30
2018-09-20T03:19:10.830Z,24.30
2018-09-20T03:21:38.685Z,24.20
2018-09-20T03:24:06.376Z,24.20
2018-09-20T03:26:34.039Z,24.20
2018-09-20T03:29:01.859Z,24.00
2018-09-20T03:31:29.600Z,24.00
2018-09-20T03:33:57.261Z,23.90
2018-09-20T03:36:24.942Z,23.90
2018-09-20T03:38:52.712Z,23.80
2018-09-20T03:41:20.336Z,23.80
2018-09-20T03:43:47.987Z,23.70
2018-09-20T03:46:15.642Z,23.80
2018-09-20T03:48:43.246Z,23.70
2018-09-20T03:51:10.907Z,23.70
2018-09-20T03:53:38.661Z,23.80
2018-09-20T03:56:06.282Z,23.80
2018-09-20T03:58:33.924Z,23.70
2018-09-20T04:01:01.867Z,23.80
2018-09-20T04:03:29.538Z,23.90
2018-09-20T04:05:57.180Z,24.00
2018-09-20T04:08:24.860Z,24.00
2018-09-20T04:10:52.585Z,24.00
2018-09-20T04:13:20.269Z,23.90
2018-09-20T04:15:48.263Z,23.70
2018-09-20T04:18:15.892Z,23.60
2018-09-20T04:20:43.765Z,23.70
2018-09-20T04:23:11.398Z,23.70
2018-09-20T04:25:39.120Z,23.70
2018-09-20T04:28:06.739Z,23.70
2018-09-20T04:30:34.342Z,23.80
2018-09-20T04:33:02.005Z,23.80
2018-09-20T04:35:29.691Z,23.80
2018-09-20T04:37:57.312Z,23.90
2018-09-20T04:40:25.061Z,23.90
2018-09-20T04:42:52.738Z,23.90
2018-09-20T04:45:20.351Z,23.90
2018-09-20T04:47:48.097Z,24.00
2018-09-20T04:50:15.739Z,24.00
2018-09-20T04:52:43.450Z,24.00
2018-09-20T04:55:11.491Z,23.90
2018-09-20T04:57:39.300Z,23.80
2018-09-20T05:00:07.059Z,23.80
2018-09-20T05:02:34.949Z,23.80
2018-09-20T05:05:02.534Z,23.80
2018-09-20T05:07:30.223Z,23.80
2018-09-20T05:09:59.095Z,23.90
2018-09-20T05:12:26.684Z,23.80
2018-09-20T05:14:54.406Z,23.80
2018-09-20T05:17:22.030Z,23.80
2018-09-20T05:19:49.783Z,24.00
2018-09-20T05:22:17.419Z,24.00
2018-09-20T05:24:44.991Z,24.00
2018-09-20T05:27:12.618Z,24.00
2018-09-20T05:29:40.161Z,24.10
2018-09-20T05:32:07.768Z,24.10
2018-09-20T05:34:35.441Z,24.00
2018-09-20T05:37:03.210Z,23.90
2018-09-20T05:39:30.884Z,23.70
2018-09-20T05:41:58.543Z,23.50
2018-09-20T05:44:26.247Z,23.60
2018-09-20T05:46:53.945Z,23.60
2018-09-20T05:49:21.633Z,23.70
2018-09-20T05:51:49.360Z,23.50
2018-09-20T05:54:17.021Z,23.40
2018-09-20T05:56:44.933Z,23.50
2018-09-20T05:59:12.723Z,23.50
2018-09-20T06:01:40.380Z,23.20
2018-09-20T06:04:08.120Z,23.00
2018-09-20T06:06:35.889Z,22.90
2018-09-20T06:09:04.789Z,22.60
2018-09-20T06:11:32.395Z,22.50
2018-09-20T06:14:00.188Z,22.50
2018-09-20T06:16:27.938Z,22.40
2018-09-20T06:18:55.569Z,22.50
2018-09-20T06:21:23.164Z,22.80
2018-09-20T06:23:50.964Z,23.00
2018-09-20T06:26:18.837Z,23.10
2018-09-20T06:28:46.603Z,23.20
2018-09-20T06:31:14.458Z,23.30
2018-09-20T06:33:42.061Z,23.40
2018-09-20T06:36:09.749Z,23.50
2018-09-20T06:38:37.477Z,23.50
2018-09-20T06:41:05.205Z,23.50
2018-09-20T06:43:32.767Z,23.50
2018-09-20T06:46:00.621Z,23.60
2018-09-20T06:48:28.241Z,23.50
2018-09-20T06:50:55.921Z,23.60
2018-09-20T06:53:23.531Z,23.50
2018-09-20T06:55:51.286Z,23.60
2018-09-20T06:58:18.955Z,23.70
2018-09-20T07:00:46.572Z,23.60
2018-09-20T07:03:14.239Z,23.50
2018-09-20T07:05:41.908Z,23.70
2018-09-20T07:08:09.529Z,23.70
2018-09-20T07:10:37.194Z,23.70
2018-09-20T07:13:04.893Z,23.80
2018-09-20T07:15:32.546Z,23.80
2018-09-20T07:18:00.181Z,23.80
2018-09-20T07:20:27.823Z,23.80
2018-09-20T07:22:55.509Z,23.70
2018-09-20T07:25:23.302Z,23.70
2018-09-20T07:27:50.882Z,23.60
2018-09-20T07:30:18.748Z,23.70
2018-09-20T07:32:46.484Z,23.80
2018-09-20T07:35:14.498Z,23.70
2018-09-20T07:37:42.237Z,23.60
2018-09-20T07:40:10.102Z,23.60
2018-09-20T07:42:37.726Z,23.60
2018-09-20T07:45:05.314Z,23.60
2018-09-20T07:47:32.986Z,23.60
2018-09-20T07:50:00.648Z,23.50
2018-09-20T07:52:28.403Z,23.50
2018-09-20T07:54:56.101Z,23.60
2018-09-20T07:57:25.557Z,23.60
2018-09-20T07:59:53.211Z,23.60
2018-09-20T08:02:20.871Z,23.70
2018-09-20T08:04:48.581Z,23.70
2018-09-20T08:07:16.259Z,23.70
2018-09-20T08:09:43.803Z,23.80
2018-09-20T08:12:11.439Z,23.80
2018-09-20T08:14:39.106Z,23.90
2018-09-20T08:17:06.903Z,23.90
2018-09-20T08:19:34.561Z,24.00
2018-09-20T08:22:02.233Z,24.10
2018-09-20T08:24:29.917Z,24.20
2018-09-20T08:26:57.559Z,24.30
2018-09-20T08:29:25.305Z,24.40
2018-09-20T08:31:52.953Z,24.40
2018-09-20T08:34:20.587Z,24.50
2018-09-20T08:36:48.361Z,24.50
2018-09-20T08:39:16.034Z,24.50
2018-09-20T08:41:43.745Z,24.60
2018-09-20T08:44:11.376Z,24.60
2018-09-20T08:46:39.077Z,24.60
2018-09-20T08:49:06.708Z,24.70
2018-09-20T08:51:34.491Z,24.60
2018-09-20T08:54:02.285Z,24.70
2018-09-20T08:56:29.996Z,24.70
2018-09-20T08:58:57.637Z,24.70
2018-09-20T09:01:25.267Z,24.70
2018-09-20T09:03:52.988Z,24.70
2018-09-20T09:06:20.590Z,24.70
2018-09-20T09:08:48.269Z,24.80
2018-09-20T09:11:15.887Z,24.80
2018-09-20T09:13:43.773Z,24.80
2018-09-20T09:16:11.445Z,24.80
2018-09-20T09:18:39.046Z,24.80
2018-09-20T09:21:06.677Z,24.80
2018-09-20T09:23:34.408Z,24.80
2018-09-20T09:26:02.037Z,24.90
2018-09-20T09:28:29.822Z,24.90
2018-09-20T09:30:57.469Z,24.90
2018-09-20T09:33:25.092Z,24.90
2018-09-20T09:35:52.809Z,24.90
2018-09-20T09:38:20.548Z,24.90
2018-09-20T09:40:48.220Z,24.90
2018-09-20T09:43:15.831Z,24.90
2018-09-20T09:45:43.466Z,24.90
2018-09-20T09:48:11.209Z,25.00
2018-09-20T09:50:38.836Z,25.00
2018-09-20T09:53:06.642Z,25.00
2018-09-20T09:55:34.328Z,25.00
2018-09-20T09:58:01.999Z,25.00
2018-09-20T10:00:33.520Z,25.10
2018-09-20T10:03:01.139Z,25.10
2018-09-20T10:05:28.817Z,25.10
2018-09-20T10:07:56.602Z,25.10
2018-09-20T10:10:24.316Z,25.10
2018-09-20T10:12:51.970Z,25.10
2018-09-20T10:15:19.762Z,25.10
2018-09-20T10:17:47.511Z,25.10
2018-09-20T10:20:15.876Z,25.10
2018-09-20T10:22:43.495Z,25.20
2018-09-20T10:25:11.111Z,25.20
2018-09-20T10:27:38.800Z,25.20
2018-09-20T10:30:06.683Z,25.20
2018-09-20T10:32:34.296Z,25.20
2018-09-20T10:35:03.015Z,25.20
2018-09-20T10:37:30.647Z,25.20
2018-09-20T10:39:58.272Z,25.20
2018-09-20T10:42:25.909Z,25.20
2018-09-20T10:44:53.517Z,25.20
2018-09-20T10:47:21.251Z,25.20
2018-09-20T10:49:48.857Z,25.20
2018-09-20T10:52:16.917Z,25.20
2018-09-20T10:54:44.701Z,25.10
2018-09-20T10:57:12.272Z,25.20
2018-09-20T10:59:40.113Z,25.20
2018-09-20T11:02:07.790Z,25.20
2018-09-20T11:04:35.411Z,25.20
2018-09-20T11:07:03.206Z,25.20
2018-09-20T11:09:30.910Z,25.20
2018-09-20T11:11:58.641Z,25.20
2018-09-20T11:14:26.287Z,25.20
2018-09-20T11:16:54.066Z,25.20
2018-09-20T11:19:21.711Z,25.20
2018-09-20T11:21:49.371Z,25.20
2018-09-20T11:24:17.059Z,25.20
2018-09-20T11:26:44.674Z,25.20
2018-09-20T11:29:12.293Z,25.20
2018-09-20T11:31:39.944Z,25.20
2018-09-20T11:34:07.804Z,25.20
2018-09-20T11:36:35.425Z,25.20
2018-09-20T11:39:03.287Z,25.20
2018-09-20T11:41:31.069Z,25.20
2018-09-20T11:43:58.709Z,25.20
2018-09-20T11:46:26.415Z,25.20
2018-09-20T11:48:54.077Z,25.20
2018-09-20T11:51:21.705Z,25.20
2018-09-20T11:53:49.429Z,25.20
2018-09-20T11:56:17.034Z,25.20
2018-09-20T11:58:44.760Z,25.20
2018-09-20T12:01:12.509Z,25.20
2018-09-20T12:03:40.101Z,25.20
2018-09-20T12:06:07.724Z,25.20
2018-09-20T12:08:35.356Z,25.20
2018-09-20T12:11:03.005Z,25.20
2018-09-20T12:13:30.652Z,25.20
2018-09-20T12:15:58.237Z,25.20
2018-09-20T12:18:25.905Z,25.20
2018-09-20T12:20:53.560Z,25.20
2018-09-20T12:23:21.165Z,25.20
2018-09-20T12:25:48.901Z,25.20
2018-09-20T12:28:16.577Z,25.20
2018-09-20T12:30:44.278Z,25.20
2018-09-20T12:33:11.978Z,25.20
2018-09-20T12:35:39.862Z,25.20
2018-09-20T12:38:07.444Z,25.20
2018-09-20T12:40:35.096Z,25.20
2018-09-20T12:43:02.821Z,25.20
2018-09-20T12:45:30.588Z,25.20
2018-09-20T12:47:58.177Z,25.20
2018-09-20T12:50:25.985Z,25.20
2018-09-20T12:52:53.679Z,25.30
2018-09-20T12:55:21.381Z,25.20
2018-09-20T12:57:49.058Z,25.30
2018-09-20T13:00:16.751Z,25.20
2018-09-20T13:02:44.531Z,25.30
2018-09-20T13:05:12.194Z,25.30
2018-09-20T13:07:39.839Z,25.30
2018-09-20T13:10:07.565Z,25.30
2018-09-20T13:12:35.249Z,25.40
2018-09-20T13:15:02.928Z,25.40
2018-09-20T13:17:30.664Z,25.40
2018-09-20T13:19:58.364Z,25.40
2018-09-20T13:22:25.975Z,25.30
2018-09-20T13:24:53.685Z,25.40
2018-09-20T13:27:21.551Z,25.40
2018-09-20T13:29:49.193Z,25.40
2018-09-20T13:32:16.896Z,25.40
2018-09-20T13:34:44.519Z,25.40
2018-09-20T13:37:12.197Z,25.40
2018-09-20T13:39:39.846Z,25.40
2018-09-20T13:42:07.595Z,25.40
2018-09-20T13:44:35.259Z,25.40
2018-09-20T13:47:02.940Z,25.40
2018-09-20T13:49:30.518Z,25.50
2018-09-20T13:51:58.306Z,25.10
2018-09-20T13:54:26.046Z,25.50
2018-09-20T13:56:53.703Z,25.50
2018-09-20T13:59:21.409Z,25.50
2018-09-20T14:01:49.075Z,25.50
2018-09-20T14:04:16.836Z,25.50
2018-09-20T14:06:44.604Z,25.50
2018-09-20T14:09:13.008Z,25.50
2018-09-20T14:11:40.958Z,25.50
2018-09-20T14:14:08.630Z,25.50
2018-09-20T14:16:36.375Z,25.50
2018-09-20T14:19:04.354Z,25.50
2018-09-20T14:21:32.125Z,25.50
2018-09-20T14:23:59.815Z,25.50
2018-09-20T14:26:28.768Z,25.50
2018-09-20T14:28:56.546Z,25.60
2018-09-20T14:31:24.295Z,25.60
2018-09-20T14:33:51.897Z,25.60
2018-09-20T14:36:19.619Z,25.50
2018-09-20T14:38:47.308Z,25.50
2018-09-20T14:41:14.967Z,25.60
2018-09-20T14:43:42.606Z,25.60
2018-09-20T14:46:10.226Z,25.50
2018-09-20T14:48:37.862Z,25.50
2018-09-20T14:51:05.575Z,25.50
2018-09-20T14:53:33.344Z,25.50
2018-09-20T14:56:01.045Z,25.50
2018-09-20T14:58:33.234Z,25.50
2018-09-20T15:01:01.044Z,25.50
2018-09-20T15:03:28.831Z,25.50
2018-09-20T15:05:56.414Z,25.50
2018-09-20T15:08:24.063Z,25.50
2018-09-20T15:10:51.725Z,25.50
2018-09-20T15:13:19.465Z,25.50
2018-09-20T15:15:47.187Z,25.60
2018-09-20T15:18:14.861Z,25.60
2018-09-20T15:20:42.565Z,25.60
2018-09-20T15:23:10.351Z,25.60
2018-09-20T15:25:38.006Z,25.60
2018-09-20T15:28:05.707Z,25.60
2018-09-20T15:30:33.423Z,25.60
2018-09-20T15:33:01.047Z,25.60
2018-09-20T15:35:28.711Z,25.60
2018-09-20T15:37:56.472Z,25.70
2018-09-20T15:40:24.116Z,25.70
2018-09-20T15:42:51.723Z,25.60
2018-09-20T15:45:19.478Z,25.70
2018-09-20T15:47:47.175Z,25.70
2018-09-20T15:50:14.826Z,25.70
2018-09-20T15:52:42.455Z,25.70
2018-09-20T15:55:10.122Z,25.70
2018-09-20T15:57:37.870Z,25.70
2018-09-20T16:00:05.550Z,25.70
2018-09-20T16:02:33.181Z,25.90
2018-09-20T16:05:00.836Z,26.10
2018-09-20T16:07:28.507Z,26.20
2018-09-20T16:09:56.239Z,26.20
2018-09-20T16:12:23.924Z,26.20
2018-09-20T16:14:51.698Z,26.10
2018-09-20T16:17:19.450Z,26.10
2018-09-20T16:19:47.265Z,26.10
2018-09-20T16:22:14.888Z,26.10
2018-09-20T16:24:42.535Z,26.30
2018-09-20T16:27:10.244Z,26.20
2018-09-20T16:29:42.539Z,26.20
2018-09-20T16:32:25.433Z,26.20
2018-09-20T16:34:56.743Z,26.20
2018-09-20T16:37:28.149Z,26.20
2018-09-20T16:39:58.294Z,26.10
2018-09-20T16:42:28.383Z,26.10
2018-09-20T16:44:56.094Z,26.10
2018-09-20T16:47:23.762Z,26.10
2018-09-20T16:49:51.477Z,26.10
2018-09-20T16:52:19.188Z,26.00
2018-09-20T16:54:46.903Z,26.00
2018-09-20T16:57:14.584Z,25.90
2018-09-20T16:59:42.300Z,25.90
2018-09-20T17:02:09.946Z,25.90
2018-09-20T17:04:37.618Z,25.80
2018-09-20T17:07:05.466Z,25.80
2018-09-20T17:09:33.197Z,25.80
2018-09-20T17:12:01.034Z,25.80
2018-09-20T17:14:28.745Z,25.80
2018-09-20T17:16:56.404Z,25.80
2018-09-20T17:19:24.116Z,25.80
2018-09-20T17:21:51.810Z,25.70
2018-09-20T17:24:19.468Z,25.70
2018-09-20T17:26:47.168Z,25.70
2018-09-20T17:29:14.868Z,25.70
2018-09-20T17:31:42.592Z,25.80
2018-09-20T17:34:10.337Z,25.80
2018-09-20T17:36:38.332Z,25.90
2018-09-20T17:39:09.214Z,25.90
2018-09-20T17:41:37.976Z,25.90
2018-09-20T17:44:07.148Z,25.90
2018-09-20T17:46:34.907Z,26.00
2018-09-20T17:49:02.548Z,25.90
2018-09-20T17:51:30.469Z,26.00
2018-09-20T17:53:58.803Z,25.90
2018-09-20T17:56:26.793Z,26.00
2018-09-20T17:58:54.741Z,26.00
2018-09-20T18:01:22.415Z,26.00
2018-09-20T18:03:50.059Z,26.00
2018-09-20T18:06:17.667Z,26.00
2018-09-20T18:08:45.344Z,26.00
2018-09-20T18:11:13.113Z,26.00
2018-09-20T18:13:40.734Z,26.00
2018-09-20T18:16:08.361Z,26.00
2018-09-20T18:18:36.080Z,26.00
2018-09-20T18:21:03.710Z,26.00
2018-09-20T18:23:31.357Z,26.10
2018-09-20T18:25:59.065Z,26.20
2018-09-20T18:28:26.807Z,26.30
2018-09-20T18:30:54.590Z,26.30
2018-09-20T18:33:22.374Z,26.30
2018-09-20T18:35:50.049Z,26.30
2018-09-20T18:38:17.757Z,26.30
2018-09-20T18:40:45.429Z,26.30
2018-09-20T18:43:13.305Z,26.20
2018-09-20T18:45:40.978Z,26.20
2018-09-20T18:48:08.722Z,26.20
2018-09-20T18:50:36.382Z,26.20
2018-09-20T18:53:04.111Z,26.10
2018-09-20T18:55:31.785Z,26.20
2018-09-20T18:57:59.475Z,26.10
2018-09-20T19:00:27.107Z,26.10
2018-09-20T19:02:54.786Z,26.10
2018-09-20T19:05:22.578Z,26.10
2018-09-20T19:07:50.216Z,26.10
2018-09-20T19:10:17.897Z,26.10
2018-09-20T19:12:45.643Z,26.10
2018-09-20T19:15:13.273Z,26.00
2018-09-20T19:17:40.875Z,26.10
2018-09-20T19:20:09.056Z,26.00
2018-09-20T19:22:36.674Z,26.00
2018-09-20T19:25:04.382Z,25.90
2018-09-20T19:27:32.112Z,26.00
2018-09-20T19:29:59.792Z,26.00
2018-09-20T19:32:27.558Z,26.00
2018-09-20T19:34:55.173Z,26.00
2018-09-20T19:37:22.830Z,25.90
2018-09-20T19:39:50.463Z,25.90
2018-09-20T19:42:18.148Z,25.90
2018-09-20T19:44:45.815Z,25.90
2018-09-20T19:47:13.716Z,25.90
2018-09-20T19:49:41.346Z,25.90
2018-09-20T19:52:09.266Z,25.90
2018-09-20T19:54:36.908Z,25.90
2018-09-20T19:57:04.587Z,25.90
2018-09-20T19:59:32.233Z,25.90
2018-09-20T20:01:59.899Z,25.90
2018-09-20T20:04:27.612Z,25.90
2018-09-20T20:06:55.241Z,25.80
2018-09-20T20:09:22.840Z,25.80
2018-09-20T20:11:50.537Z,25.80
2018-09-20T20:14:18.189Z,25.80
2018-09-20T20:16:45.855Z,25.80
2018-09-20T20:19:13.506Z,25.80
2018-09-20T20:21:41.469Z,25.80
2018-09-20T20:24:09.157Z,25.80
2018-09-20T20:26:36.803Z,25.80
2018-09-20T20:29:04.565Z,25.80
2018-09-20T20:31:32.247Z,25.70
2018-09-20T20:33:59.964Z,25.70
2018-09-20T20:36:27.801Z,25.70
2018-09-20T20:38:55.781Z,25.60
2018-09-20T20:41:23.445Z,25.60
2018-09-20T20:43:51.101Z,25.60
2018-09-20T20:46:18.746Z,25.60
2018-09-20T20:48:46.465Z,25.50
2018-09-20T20:51:40.211Z,25.50
2018-09-20T20:54:07.915Z,25.50
2018-09-20T20:56:35.997Z,25.50
2018-09-20T20:59:03.631Z,25.50
2018-09-20T21:01:31.321Z,25.50
2018-09-20T21:03:58.966Z,25.40
2018-09-20T21:06:26.712Z,25.40
2018-09-20T21:08:54.632Z,25.40
2018-09-20T21:11:22.285Z,25.30
2018-09-20T21:13:49.971Z,25.30
2018-09-20T21:16:17.669Z,25.30
2018-09-20T21:18:45.324Z,25.30
2018-09-20T21:21:12.974Z,25.30
2018-09-20T21:23:40.671Z,25.30
2018-09-20T21:26:08.455Z,25.30
2018-09-20T21:28:36.117Z,25.40
2018-09-20T21:31:03.740Z,25.40
2018-09-20T21:33:31.426Z,25.50
2018-09-20T21:35:59.221Z,25.40
2018-09-20T21:38:27.020Z,25.40
2018-09-20T21:40:54.943Z,25.40
2018-09-20T21:43:22.619Z,25.40
2018-09-20T21:45:50.541Z,25.40
2018-09-20T21:48:18.316Z,25.40
2018-09-20T21:50:46.027Z,25.40
2018-09-20T21:53:13.752Z,25.40
2018-09-20T21:55:41.433Z,25.30
2018-09-20T21:58:09.077Z,25.40
2018-09-20T22:00:36.765Z,25.30
2018-09-20T22:03:05.150Z,25.30
2018-09-20T22:05:34.114Z,25.30
2018-09-20T22:08:01.777Z,25.30
2018-09-20T22:10:29.580Z,25.30
2018-09-20T22:12:57.856Z,25.30
2018-09-20T22:15:26.728Z,25.30
2018-09-20T22:17:55.043Z,25.30
2018-09-20T22:20:23.824Z,25.30
2018-09-20T22:22:51.502Z,25.30
2018-09-20T22:25:19.191Z,25.30
2018-09-20T22:27:47.009Z,25.30
2018-09-20T22:30:14.955Z,25.30
2018-09-20T22:32:42.707Z,25.20
2018-09-20T22:35:10.402Z,25.20
2018-09-20T22:37:38.066Z,25.20
2018-09-20T22:40:05.872Z,25.20
2018-09-20T22:42:33.614Z,25.20
2018-09-20T22:45:01.974Z,25.20
2018-09-20T22:47:29.604Z,25.20
2018-09-20T22:49:57.251Z,25.20
2018-09-20T22:52:24.930Z,25.20
2018-09-20T22:54:52.602Z,25.20
2018-09-20T22:57:20.249Z,25.20
2018-09-20T22:59:47.919Z,25.20
2018-09-20T23:02:15.902Z,25.20
2018-09-20T23:04:43.682Z,25.10
2018-09-20T23:07:11.362Z,25.10
2018-09-20T23:09:38.981Z,25.10
2018-09-20T23:12:06.816Z,25.20
2018-09-20T23:14:34.925Z,25.10
2018-09-20T23:17:02.611Z,25.10
2018-09-20T23:19:30.266Z,25.00
2018-09-20T23:21:58.109Z,25.00
2018-09-20T23:24:25.796Z,25.10
2018-09-20T23:26:53.857Z,25.10
2018-09-20T23:29:21.477Z,25.10
2018-09-20T23:31:49.177Z,25.10
2018-09-20T23:34:16.823Z,25.10
2018-09-20T23:36:44.919Z,25.10
2018-09-20T23:39:12.963Z,25.10
2018-09-20T23:41:40.849Z,25.00
2018-09-20T23:44:09.072Z,25.00
2018-09-20T23:46:37.297Z,25.00
2018-09-20T23:49:05.129Z,25.00
2018-09-20T23:51:32.903Z,25.00
2018-09-20T23:54:00.571Z,24.90
2018-09-20T23:56:28.201Z,24.90
2018-09-20T23:58:55.881Z,24.90
